Time;durP1;ratioP1;P1;durP2;ratioP2;P2;SDS_P1;SDS_P2;PMS_P1;PMS_P2;Temp;Humidity;BMP_temperature;BMP_pressure;BME280_temperature;BME280_humidity;BME280_pressure;Samples;Min_cycle;Max_cycle;Signal;HPM_P1;HPM_P2
2021/03/04 00:03:35;;;;;;;28.53;11.40;;;;;;;;;;10365074;28;20458;-63
2021/03/04 00:08:33;;;;;;;18.23;9.47;;;;;;;;;;10373548;28;20044;-60
2021/03/04 00:13:30;;;;;;;14.70;7.77;;;;;;;;;;10373709;28;20124;-60
2021/03/04 00:18:27;;;;;;;20.70;8.27;;;;;;;;;;10362128;28;20040;-62
2021/03/04 00:23:25;;;;;;;9.03;4.00;;;;;;;;;;10380309;28;20032;-63
2021/03/04 00:28:22;;;;;;;8.77;5.27;;;;;;;;;;10377769;28;20042;-61
2021/03/04 00:33:20;;;;;;;20.87;8.03;;;;;;;;;;10370661;28;20055;-62
2021/03/04 00:38:17;;;;;;;19.27;7.17;;;;;;;;;;10359430;28;20544;-60
2021/03/04 00:43:14;;;;;;;16.60;4.90;;;;;;;;;;10361860;28;20035;-61
2021/03/04 00:48:12;;;;;;;11.80;5.47;;;;;;;;;;10362241;28;20036;-61
2021/03/04 00:53:09;;;;;;;7.60;2.50;;;;;;;;;;10363192;28;20420;-60
2021/03/04 00:58:07;;;;;;;6.33;2.73;;;;;;;;;;10369572;28;20041;-62
2021/03/04 01:03:04;;;;;;;3.47;2.23;;;;;;;;;;10368108;28;20029;-61
2021/03/04 01:08:02;;;;;;;2.60;1.57;;;;;;;;;;10359490;28;20037;-61
2021/03/04 01:12:59;;;;;;;4.37;2.40;;;;;;;;;;10369258;28;20044;-60
2021/03/04 01:17:57;;;;;;;2.30;1.63;;;;;;;;;;10351397;28;20052;-63
2021/03/04 01:22:54;;;;;;;6.30;2.07;;;;;;;;;;10374497;28;20037;-63
2021/03/04 01:27:52;;;;;;;1.53;1.07;;;;;;;;;;10340163;28;20509;-61
2021/03/04 01:32:49;;;;;;;2.83;2.20;;;;;;;;;;10356683;28;20036;-61
2021/03/04 01:37:47;;;;;;;2.37;1.53;;;;;;;;;;10353950;28;20043;-63
2021/03/04 01:42:44;;;;;;;2.97;1.53;;;;;;;;;;10358001;28;20102;-60
2021/03/04 01:47:44;;;;;;;1.47;1.33;;;;;;;;;;10365987;28;20594;-61
2021/03/04 01:52:43;;;;;;;4.55;3.10;;;;;;;;;;10362234;28;20521;-63
2021/03/04 01:57:40;;;;;;;6.80;2.70;;;;;;;;;;10367766;28;20039;-63
2021/03/04 02:02:38;;;;;;;2.57;2.30;;;;;;;;;;10369555;28;20032;-62
2021/03/04 02:07:41;;;;;;;6.50;2.80;;;;;;;;;;10370184;28;20459;-62
2021/03/04 02:12:57;;;;;;;3.13;2.05;;;;;;;;;;10363441;28;20586;-64
2021/03/04 02:17:55;;;;;;;6.25;2.05;;;;;;;;;;10362919;28;20222;-61
2021/03/04 02:22:56;;;;;;;6.10;3.13;;;;;;;;;;10365464;28;20056;-61
2021/03/04 02:27:55;;;;;;;4.57;1.98;;;;;;;;;;10371527;28;20052;-60
2021/03/04 02:32:57;;;;;;;4.13;2.33;;;;;;;;;;10347677;28;20077;-59
2021/03/04 02:37:56;;;;;;;2.03;1.77;;;;;;;;;;10360892;28;20028;-60
2021/03/04 02:42:54;;;;;;;3.30;2.25;;;;;;;;;;10362033;28;20474;-63
2021/03/04 02:47:51;;;;;;;6.50;2.53;;;;;;;;;;10354413;28;20029;-62
2021/03/04 02:52:49;;;;;;;3.43;1.33;;;;;;;;;;10357399;28;20290;-63
2021/03/04 02:57:47;;;;;;;3.30;1.45;;;;;;;;;;10373073;28;20239;-59
2021/03/04 03:02:45;;;;;;;3.33;2.05;;;;;;;;;;10366698;28;20025;-62
2021/03/04 03:07:43;;;;;;;1.23;1.13;;;;;;;;;;10383811;28;20115;-62
2021/03/04 03:12:42;;;;;;;2.42;0.90;;;;;;;;;;10376869;28;20407;-59
2021/03/04 03:17:40;;;;;;;3.40;1.20;;;;;;;;;;10368967;28;20068;-61
2021/03/04 03:22:38;;;;;;;1.88;1.20;;;;;;;;;;10371747;28;20109;-59
2021/03/04 03:27:36;;;;;;;2.05;1.15;;;;;;;;;;10381900;28;20502;-58
2021/03/04 03:32:34;;;;;;;0.67;0.67;;;;;;;;;;10377157;28;20102;-59
2021/03/04 03:37:31;;;;;;;0.90;0.60;;;;;;;;;;10379434;28;20425;-59
2021/03/04 03:42:30;;;;;;;1.23;0.80;;;;;;;;;;10363135;28;20029;-64
2021/03/04 03:47:27;;;;;;;1.95;0.60;;;;;;;;;;10358994;28;20289;-60
2021/03/04 03:52:25;;;;;;;0.70;0.70;;;;;;;;;;10371135;28;20387;-61
2021/03/04 03:57:22;;;;;;;4.50;0.80;;;;;;;;;;10378358;28;20035;-61
2021/03/04 04:02:20;;;;;;;0.40;0.40;;;;;;;;;;10373103;28;20044;-61
2021/03/04 04:07:18;;;;;;;3.60;0.52;;;;;;;;;;10383529;28;20048;-63
2021/03/04 04:12:15;;;;;;;1.13;0.50;;;;;;;;;;10358121;28;20031;-61
2021/03/04 04:17:13;;;;;;;1.40;0.40;;;;;;;;;;10373252;28;20378;-60
2021/03/04 04:22:10;;;;;;;2.50;0.80;;;;;;;;;;10374720;28;20512;-61
2021/03/04 04:27:08;;;;;;;0.40;0.40;;;;;;;;;;10365969;28;20422;-57
2021/03/04 04:32:06;;;;;;;0.40;0.40;;;;;;;;;;10367128;28;20071;-59
2021/03/04 04:37:03;;;;;;;0.47;0.43;;;;;;;;;;10373442;28;20054;-60
2021/03/04 04:42:01;;;;;;;3.07;0.87;;;;;;;;;;10378524;28;20037;-60
2021/03/04 04:46:58;;;;;;;1.90;0.63;;;;;;;;;;10371180;28;20036;-61
2021/03/04 04:51:55;;;;;;;1.47;0.80;;;;;;;;;;10362169;28;20033;-61
2021/03/04 04:56:53;;;;;;;0.60;0.60;;;;;;;;;;10372971;28;20029;-59
2021/03/04 05:01:50;;;;;;;1.93;0.90;;;;;;;;;;10372033;28;20462;-61
2021/03/04 05:06:48;;;;;;;0.73;0.70;;;;;;;;;;10362018;28;20036;-61
2021/03/04 05:11:45;;;;;;;3.47;1.13;;;;;;;;;;10367551;28;20543;-61
2021/03/04 05:16:42;;;;;;;2.20;1.00;;;;;;;;;;10364526;28;20025;-65
2021/03/04 05:21:40;;;;;;;5.57;1.10;;;;;;;;;;10361170;28;20075;-62
2021/03/04 05:26:37;;;;;;;4.77;1.20;;;;;;;;;;10356843;28;20060;-63
2021/03/04 05:31:35;;;;;;;3.53;0.97;;;;;;;;;;10375728;28;20024;-62
2021/03/04 05:36:32;;;;;;;2.37;0.80;;;;;;;;;;10359698;28;20032;-61
2021/03/04 05:41:30;;;;;;;1.43;0.87;;;;;;;;;;10348960;28;20098;-60
2021/03/04 05:46:28;;;;;;;1.80;0.93;;;;;;;;;;10333728;28;20036;-61
2021/03/04 05:51:26;;;;;;;4.13;1.43;;;;;;;;;;10341579;28;20042;-61
2021/03/04 05:56:24;;;;;;;2.10;1.05;;;;;;;;;;10366099;28;20694;-63
2021/03/04 06:01:22;;;;;;;2.45;1.10;;;;;;;;;;10359868;28;21179;-61
2021/03/04 06:06:19;;;;;;;3.33;1.00;;;;;;;;;;10362460;28;20041;-62
2021/03/04 06:11:16;;;;;;;2.00;0.73;;;;;;;;;;10355839;28;20039;-62
2021/03/04 06:16:14;;;;;;;0.90;0.80;;;;;;;;;;10324570;28;20059;-62
2021/03/04 06:21:19;;;;;;;1.80;0.93;;;;;;;;;;10361391;28;20048;-59
2021/03/04 06:26:36;;;;;;;1.33;0.95;;;;;;;;;;10361459;28;20028;-62
2021/03/04 06:31:34;;;;;;;4.07;1.48;;;;;;;;;;10367021;28;20051;-62
2021/03/04 06:36:31;;;;;;;2.67;1.13;;;;;;;;;;10361168;28;20043;-62
2021/03/04 06:41:29;;;;;;;0.40;0.40;;;;;;;;;;10346788;28;20048;-61
2021/03/04 06:46:26;;;;;;;2.70;0.70;;;;;;;;;;10333015;28;20059;-59
2021/03/04 06:51:24;;;;;;;7.57;1.03;;;;;;;;;;10356618;28;20039;-61
2021/03/04 06:56:30;;;;;;;0.90;0.83;;;;;;;;;;10348419;28;20094;-60
2021/03/04 07:01:29;;;;;;;3.05;0.50;;;;;;;;;;10333429;28;20040;-61
2021/03/04 07:06:26;;;;;;;2.63;0.43;;;;;;;;;;10337293;28;20510;-62
2021/03/04 07:11:24;;;;;;;3.40;1.00;;;;;;;;;;10322381;28;20037;-62
2021/03/04 07:16:31;;;;;;;5.15;0.73;;;;;;;;;;10324992;28;20047;-62
2021/03/04 07:21:33;;;;;;;0.65;0.65;;;;;;;;;;10338718;28;20067;-62
2021/03/04 07:26:31;;;;;;;6.60;1.20;;;;;;;;;;10336453;28;20379;-62
2021/03/04 07:31:28;;;;;;;1.23;0.70;;;;;;;;;;10334972;28;20036;-61
2021/03/04 07:36:26;;;;;;;0.70;0.70;;;;;;;;;;10338588;28;20075;-63
2021/03/04 07:41:39;;;;;;;1.50;1.00;;;;;;;;;;10348115;28;20425;-63
2021/03/04 07:46:43;;;;;;;3.63;1.85;;;;;;;;;;10336728;28;20443;-62
2021/03/04 07:51:46;;;;;;;3.42;2.40;;;;;;;;;;10338664;28;20044;-63
2021/03/04 07:56:43;;;;;;;5.70;1.90;;;;;;;;;;10347820;28;20029;-65
2021/03/04 08:01:41;;;;;;;6.70;2.20;;;;;;;;;;10356940;28;20075;-64
2021/03/04 08:06:43;;;;;;;1.35;1.17;;;;;;;;;;10350050;28;20041;-63
2021/03/04 08:11:41;;;;;;;3.78;1.58;;;;;;;;;;10353300;28;20045;-64
2021/03/04 08:16:38;;;;;;;4.00;1.90;;;;;;;;;;10340767;28;20532;-63
2021/03/04 08:21:40;;;;;;;4.90;1.87;;;;;;;;;;10338127;28;20098;-60
2021/03/04 08:26:38;;;;;;;6.68;3.05;;;;;;;;;;10347165;28;20044;-63
2021/03/04 08:31:41;;;;;;;2.57;1.77;;;;;;;;;;10351123;28;20048;-65
2021/03/04 08:36:42;;;;;;;5.07;2.22;;;;;;;;;;10346786;28;20044;-62
2021/03/04 08:41:39;;;;;;;4.47;2.05;;;;;;;;;;10341588;28;20048;-64
2021/03/04 08:46:38;;;;;;;5.17;1.40;;;;;;;;;;10355222;28;20226;-65
2021/03/04 08:51:41;;;;;;;5.40;1.40;;;;;;;;;;10347792;28;20043;-64
2021/03/04 08:56:49;;;;;;;3.08;2.00;;;;;;;;;;10349381;28;20120;-64
2021/03/04 09:01:47;;;;;;;6.22;1.58;;;;;;;;;;10339546;28;20064;-65
2021/03/04 09:06:44;;;;;;;2.97;1.40;;;;;;;;;;10350412;28;20123;-61
2021/03/04 09:11:42;;;;;;;3.40;1.87;;;;;;;;;;10355618;28;20135;-60
2021/03/04 09:16:46;;;;;;;2.17;1.40;;;;;;;;;;10359755;28;20087;-61
2021/03/04 09:21:43;;;;;;;2.85;1.00;;;;;;;;;;10361591;28;21053;-61
2021/03/04 09:26:41;;;;;;;3.13;1.30;;;;;;;;;;10364239;28;20704;-58
2021/03/04 09:31:47;;;;;;;1.97;1.20;;;;;;;;;;10359097;28;20032;-61
2021/03/04 09:36:45;;;;;;;1.65;1.10;;;;;;;;;;10343767;28;20123;-62
2021/03/04 09:41:51;;;;;;;3.65;1.27;;;;;;;;;;10346447;28;20033;-64
2021/03/04 09:46:49;;;;;;;1.63;0.70;;;;;;;;;;10347918;28;20040;-62
2021/03/04 09:51:47;;;;;;;3.75;0.73;;;;;;;;;;10356536;28;20512;-63
2021/03/04 09:56:44;;;;;;;3.07;0.80;;;;;;;;;;10343185;28;20060;-62
2021/03/04 10:01:42;;;;;;;3.80;0.97;;;;;;;;;;10348004;28;20037;-65
2021/03/04 10:06:40;;;;;;;11.10;1.27;;;;;;;;;;10350940;28;20521;-64
2021/03/04 10:11:39;;;;;;;1.77;0.97;;;;;;;;;;10336268;28;20044;-64
2021/03/04 10:16:36;;;;;;;9.40;1.58;;;;;;;;;;10347438;28;20047;-62
2021/03/04 10:21:34;;;;;;;5.40;1.57;;;;;;;;;;10357383;28;20048;-62
2021/03/04 10:26:31;;;;;;;0.87;0.73;;;;;;;;;;10332386;28;20047;-63
2021/03/04 10:31:28;;;;;;;6.47;1.30;;;;;;;;;;10356071;28;20036;-62
2021/03/04 10:36:26;;;;;;;4.07;0.90;;;;;;;;;;10338468;28;20059;-62
2021/03/04 10:41:23;;;;;;;4.67;0.97;;;;;;;;;;10347122;28;20045;-62
2021/03/04 10:46:21;;;;;;;18.10;3.07;;;;;;;;;;10333283;28;20060;-63
2021/03/04 10:51:18;;;;;;;7.70;0.80;;;;;;;;;;10352143;28;20646;-62
2021/03/04 10:56:15;;;;;;;5.70;0.80;;;;;;;;;;10347594;28;20490;-62
2021/03/04 11:01:13;;;;;;;7.53;1.10;;;;;;;;;;10348653;28;20074;-63
2021/03/04 11:06:12;;;;;;;8.67;1.80;;;;;;;;;;10348957;28;20037;-62
2021/03/04 11:11:09;;;;;;;6.72;1.27;;;;;;;;;;10327033;28;20017;-63
2021/03/04 11:16:07;;;;;;;8.73;1.93;;;;;;;;;;10350369;28;20206;-64
2021/03/04 11:21:04;;;;;;;4.00;0.80;;;;;;;;;;10353498;28;20024;-61
2021/03/04 11:26:01;;;;;;;4.23;1.20;;;;;;;;;;10341492;28;20493;-64
2021/03/04 11:30:59;;;;;;;4.50;1.37;;;;;;;;;;10349487;28;20402;-62
2021/03/04 11:35:57;;;;;;;2.40;1.00;;;;;;;;;;10346981;28;20033;-63
2021/03/04 11:40:54;;;;;;;3.37;1.00;;;;;;;;;;10347308;28;20575;-65
2021/03/04 11:45:51;;;;;;;8.20;1.27;;;;;;;;;;10361068;28;20217;-64
2021/03/04 11:50:49;;;;;;;7.03;1.27;;;;;;;;;;10358039;28;20097;-63
2021/03/04 11:55:46;;;;;;;3.63;1.03;;;;;;;;;;10355165;28;20405;-65
2021/03/04 12:00:43;;;;;;;3.23;1.67;;;;;;;;;;10359803;28;20597;-64
2021/03/04 12:05:41;;;;;;;3.47;1.67;;;;;;;;;;10345172;28;20040;-63
2021/03/04 12:10:38;;;;;;;3.63;1.30;;;;;;;;;;10343937;28;20068;-63
2021/03/04 12:15:36;;;;;;;2.73;0.93;;;;;;;;;;10353350;28;20117;-66
2021/03/04 12:20:34;;;;;;;13.88;1.80;;;;;;;;;;10360799;28;20047;-65
2021/03/04 12:25:31;;;;;;;12.00;2.00;;;;;;;;;;10351413;28;20036;-65
2021/03/04 12:30:28;;;;;;;14.10;2.50;;;;;;;;;;10355749;28;20168;-65
2021/03/04 12:35:26;;;;;;;8.70;2.40;;;;;;;;;;10364351;28;20032;-64
2021/03/04 12:40:25;;;;;;;11.80;3.80;;;;;;;;;;10346707;28;20328;-63
2021/03/04 12:45:23;;;;;;;6.53;2.63;;;;;;;;;;10359360;28;20043;-62
2021/03/04 12:50:20;;;;;;;17.65;2.75;;;;;;;;;;10356254;28;20047;-64
2021/03/04 12:55:20;;;;;;;11.33;2.70;;;;;;;;;;10351128;28;20048;-63
2021/03/04 13:00:18;;;;;;;8.95;2.67;;;;;;;;;;10365777;28;20405;-62
2021/03/04 13:05:16;;;;;;;10.00;2.65;;;;;;;;;;10360311;28;20040;-64
2021/03/04 13:10:14;;;;;;;2.72;1.02;;;;;;;;;;10362795;28;20094;-62
2021/03/04 13:15:11;;;;;;;13.40;2.40;;;;;;;;;;10362239;28;20052;-62
2021/03/04 13:20:09;;;;;;;10.73;2.40;;;;;;;;;;10365763;28;20048;-62
2021/03/04 13:25:07;;;;;;;10.07;2.40;;;;;;;;;;10365484;28;21120;-60
2021/03/04 13:30:04;;;;;;;10.05;1.80;;;;;;;;;;10349574;28;20029;-61
2021/03/04 13:35:02;;;;;;;2.77;1.70;;;;;;;;;;10354305;28;20309;-61
2021/03/04 13:39:59;;;;;;;7.73;1.60;;;;;;;;;;10343016;28;20045;-62
2021/03/04 13:44:57;;;;;;;4.73;1.97;;;;;;;;;;10353877;28;20508;-61
2021/03/04 13:49:54;;;;;;;7.03;1.73;;;;;;;;;;10362230;28;20329;-61
2021/03/04 13:54:52;;;;;;;8.90;2.47;;;;;;;;;;10346008;28;20123;-60
2021/03/04 13:59:49;;;;;;;7.93;1.23;;;;;;;;;;10364012;28;20044;-61
2021/03/04 14:04:47;;;;;;;5.37;1.10;;;;;;;;;;10341706;28;20040;-61
2021/03/04 14:09:44;;;;;;;12.83;2.70;;;;;;;;;;10343137;28;20044;-62
2021/03/04 14:14:42;;;;;;;17.37;2.00;;;;;;;;;;10359321;28;20036;-60
2021/03/04 14:19:39;;;;;;;0.83;0.50;;;;;;;;;;10335841;28;20535;-61
2021/03/04 14:24:36;;;;;;;8.17;2.60;;;;;;;;;;10372414;28;20402;-60
2021/03/04 14:29:34;;;;;;;11.30;1.60;;;;;;;;;;10356288;28;20040;-60
2021/03/04 14:34:31;;;;;;;12.07;0.83;;;;;;;;;;10336324;28;20612;-58
2021/03/04 14:39:29;;;;;;;5.70;1.80;;;;;;;;;;10348375;28;20554;-60
2021/03/04 14:44:26;;;;;;;3.83;1.57;;;;;;;;;;10360435;28;20037;-59
2021/03/04 14:49:23;;;;;;;11.57;1.70;;;;;;;;;;10360153;28;20036;-59
2021/03/04 14:54:21;;;;;;;2.00;1.10;;;;;;;;;;10365523;28;20039;-61
2021/03/04 14:59:18;;;;;;;6.13;1.30;;;;;;;;;;10366221;28;20033;-60
2021/03/04 15:04:16;;;;;;;7.50;2.83;;;;;;;;;;10359401;28;20033;-61
2021/03/04 15:09:13;;;;;;;3.00;1.53;;;;;;;;;;10336242;28;20044;-62
2021/03/04 15:14:10;;;;;;;6.43;2.37;;;;;;;;;;10338104;28;20041;-58
2021/03/04 15:19:08;;;;;;;3.57;0.80;;;;;;;;;;10373217;28;20032;-59
2021/03/04 15:24:06;;;;;;;5.70;1.60;;;;;;;;;;10363698;28;20031;-58
2021/03/04 15:29:03;;;;;;;9.85;2.25;;;;;;;;;;10360645;28;20190;-59
2021/03/04 15:34:01;;;;;;;16.67;1.40;;;;;;;;;;10367159;28;20025;-59
2021/03/04 15:38:58;;;;;;;2.80;1.40;;;;;;;;;;10354561;28;20086;-61
2021/03/04 15:43:56;;;;;;;7.17;2.33;;;;;;;;;;10350722;28;21378;-62
2021/03/04 15:48:53;;;;;;;7.87;2.10;;;;;;;;;;10369288;28;20497;-57
2021/03/04 15:53:51;;;;;;;2.90;2.20;;;;;;;;;;10372941;28;20043;-60
2021/03/04 15:58:48;;;;;;;5.10;2.80;;;;;;;;;;10359779;28;20398;-62
2021/03/04 16:03:48;;;;;;;4.78;2.15;;;;;;;;;;10367098;28;20048;-58
2021/03/04 16:08:46;;;;;;;6.55;2.97;;;;;;;;;;10364265;28;20182;-59
2021/03/04 16:13:49;;;;;;;8.43;2.47;;;;;;;;;;10350212;28;20492;-59
2021/03/04 16:18:49;;;;;;;12.50;4.28;;;;;;;;;;10375387;28;20064;-59
2021/03/04 16:23:48;;;;;;;4.57;2.03;;;;;;;;;;10364284;28;20112;-59
2021/03/04 16:28:48;;;;;;;6.38;4.18;;;;;;;;;;10356376;28;20071;-60
2021/03/04 16:33:49;;;;;;;8.73;3.25;;;;;;;;;;10365072;28;20033;-59
2021/03/04 16:38:46;;;;;;;8.50;3.80;;;;;;;;;;10347794;28;20498;-59
2021/03/04 16:43:46;;;;;;;7.38;4.35;;;;;;;;;;10349068;28;20033;-60
2021/03/04 16:48:49;;;;;;;15.85;5.20;;;;;;;;;;10356485;28;20032;-62
2021/03/04 16:53:50;;;;;;;10.25;4.82;;;;;;;;;;10358924;28;20155;-59
2021/03/04 16:58:50;;;;;;;11.45;5.03;;;;;;;;;;10340461;28;20039;-61
2021/03/04 17:03:47;;;;;;;9.27;3.70;;;;;;;;;;10356926;28;20479;-59
2021/03/04 17:08:46;;;;;;;;;;;;;;;;;;10333551;28;20052;-57
2021/03/04 17:13:43;;;;;;;7.07;3.55;;;;;;;;;;10332903;28;19913;-59
2021/03/04 17:18:41;;;;;;;6.93;3.13;;;;;;;;;;10348157;28;20035;-61
2021/03/04 17:23:38;;;;;;;4.60;2.57;;;;;;;;;;10349139;28;20079;-58
2021/03/04 17:28:36;;;;;;;2.10;1.83;;;;;;;;;;10367966;28;20803;-60
2021/03/04 17:33:34;;;;;;;4.90;2.15;;;;;;;;;;10343747;28;20454;-62
2021/03/04 17:38:31;;;;;;;5.30;2.40;;;;;;;;;;10354023;28;20394;-62
2021/03/04 17:43:29;;;;;;;3.97;2.60;;;;;;;;;;10335135;28;20036;-62
2021/03/04 17:48:26;;;;;;;4.80;2.43;;;;;;;;;;10347917;28;20024;-62
2021/03/04 17:53:26;;;;;;;4.30;2.63;;;;;;;;;;10359076;28;20145;-61
2021/03/04 17:58:24;;;;;;;2.95;1.58;;;;;;;;;;10340884;28;20485;-62
2021/03/04 18:03:21;;;;;;;4.37;2.33;;;;;;;;;;10357647;28;20024;-62
2021/03/04 18:08:19;;;;;;;4.30;2.10;;;;;;;;;;10350686;28;20032;-60
2021/03/04 18:13:17;;;;;;;2.80;1.70;;;;;;;;;;10370337;28;20025;-61
2021/03/04 18:18:14;;;;;;;1.33;1.20;;;;;;;;;;10341601;28;20021;-61
2021/03/04 18:23:12;;;;;;;7.33;2.50;;;;;;;;;;10353410;28;20025;-60
2021/03/04 18:28:09;;;;;;;3.90;1.00;;;;;;;;;;10351265;28;20482;-58
2021/03/04 18:33:07;;;;;;;2.80;1.50;;;;;;;;;;10357839;28;20051;-60
2021/03/04 18:38:05;;;;;;;1.53;1.43;;;;;;;;;;10364815;28;20143;-59
2021/03/04 18:43:05;;;;;;;4.65;1.83;;;;;;;;;;10360468;28;20128;-62
2021/03/04 18:48:03;;;;;;;2.15;1.95;;;;;;;;;;10332216;28;21375;-58
2021/03/04 18:53:00;;;;;;;3.00;1.50;;;;;;;;;;10343885;28;20056;-58
2021/03/04 18:57:58;;;;;;;1.80;1.20;;;;;;;;;;10360928;28;20082;-59
2021/03/04 19:02:55;;;;;;;4.30;2.43;;;;;;;;;;10351112;28;20040;-58
2021/03/04 19:07:52;;;;;;;1.50;1.20;;;;;;;;;;10368205;28;20036;-61
2021/03/04 19:12:50;;;;;;;3.70;2.33;;;;;;;;;;10357712;28;20041;-62
2021/03/04 19:17:48;;;;;;;1.50;1.40;;;;;;;;;;10353057;28;20054;-60
2021/03/04 19:22:45;;;;;;;1.90;1.08;;;;;;;;;;10353146;28;20509;-62
2021/03/04 19:27:43;;;;;;;2.77;1.90;;;;;;;;;;10340473;28;20029;-62
2021/03/04 19:32:41;;;;;;;1.90;1.67;;;;;;;;;;10364141;28;20047;-62
2021/03/04 19:37:38;;;;;;;4.67;2.03;;;;;;;;;;10349318;28;20592;-59
2021/03/04 19:42:36;;;;;;;2.73;1.63;;;;;;;;;;10359041;28;20415;-59
2021/03/04 19:47:34;;;;;;;2.03;1.67;;;;;;;;;;10374970;28;20040;-61
2021/03/04 19:52:31;;;;;;;2.63;1.75;;;;;;;;;;10362308;28;20028;-62
2021/03/04 19:57:29;;;;;;;1.20;1.10;;;;;;;;;;10355833;28;20043;-61
2021/03/04 20:02:28;;;;;;;2.72;0.77;;;;;;;;;;10373565;28;20036;-58
2021/03/04 20:07:26;;;;;;;0.77;0.77;;;;;;;;;;10376277;28;20032;-63
2021/03/04 20:12:24;;;;;;;1.40;0.97;;;;;;;;;;10372428;28;20040;-61
2021/03/04 20:17:21;;;;;;;2.17;1.10;;;;;;;;;;10373260;28;20041;-59
2021/03/04 20:22:19;;;;;;;1.40;0.43;;;;;;;;;;10369349;28;20037;-60
2021/03/04 20:27:16;;;;;;;0.20;0.20;;;;;;;;;;10323658;28;20032;-60
2021/03/04 20:32:14;;;;;;;1.30;0.53;;;;;;;;;;10342205;28;20098;-60
2021/03/04 20:37:11;;;;;;;2.43;0.60;;;;;;;;;;10346473;28;20311;-60
2021/03/04 20:42:09;;;;;;;1.90;0.50;;;;;;;;;;10358802;28;20517;-59
2021/03/04 20:47:07;;;;;;;2.53;1.03;;;;;;;;;;10364238;28;20033;-61
2021/03/04 20:52:05;;;;;;;1.25;0.63;;;;;;;;;;10337100;28;20449;-60
2021/03/04 20:57:02;;;;;;;1.07;0.97;;;;;;;;;;10350664;28;20036;-61
2021/03/04 21:01:59;;;;;;;1.13;1.00;;;;;;;;;;10360723;28;20036;-59
2021/03/04 21:06:57;;;;;;;0.83;0.50;;;;;;;;;;10345486;28;20041;-61
2021/03/04 21:11:54;;;;;;;1.10;0.73;;;;;;;;;;10345256;28;20040;-61
2021/03/04 21:16:51;;;;;;;2.57;0.60;;;;;;;;;;10352715;28;20029;-58
2021/03/04 21:21:49;;;;;;;0.80;0.80;;;;;;;;;;10347270;28;20131;-60
2021/03/04 21:26:46;;;;;;;0.93;0.63;;;;;;;;;;10358645;28;20510;-61
2021/03/04 21:31:44;;;;;;;0.50;0.50;;;;;;;;;;10348584;28;20029;-61
2021/03/04 21:36:41;;;;;;;1.30;0.77;;;;;;;;;;10332478;28;20045;-60
2021/03/04 21:41:39;;;;;;;2.10;0.80;;;;;;;;;;10349281;28;20036;-60
2021/03/04 21:46:36;;;;;;;0.50;0.50;;;;;;;;;;10349566;28;20028;-60
2021/03/04 21:51:34;;;;;;;0.63;0.63;;;;;;;;;;10356848;28;20070;-61
2021/03/04 21:56:32;;;;;;;2.67;0.93;;;;;;;;;;10342835;28;20029;-61
2021/03/04 22:01:30;;;;;;;1.17;1.05;;;;;;;;;;10364633;28;20385;-61
2021/03/04 22:06:28;;;;;;;1.25;0.82;;;;;;;;;;10367938;28;20054;-60
2021/03/04 22:11:26;;;;;;;0.57;0.57;;;;;;;;;;10347189;28;20040;-59
2021/03/04 22:16:23;;;;;;;0.60;0.60;;;;;;;;;;10339813;28;20152;-60
2021/03/04 22:21:21;;;;;;;1.27;0.80;;;;;;;;;;10358439;28;20063;-62
2021/03/04 22:26:18;;;;;;;1.43;1.00;;;;;;;;;;10323567;28;20032;-60
2021/03/04 22:31:16;;;;;;;0.80;0.67;;;;;;;;;;10342551;28;20487;-61
2021/03/04 22:36:13;;;;;;;0.47;0.47;;;;;;;;;;10330168;28;20052;-62
2021/03/04 22:41:12;;;;;;;2.70;1.03;;;;;;;;;;10362251;28;20498;-61
2021/03/04 22:46:09;;;;;;;0.77;0.60;;;;;;;;;;10346671;28;20687;-62
2021/03/04 22:51:07;;;;;;;0.77;0.77;;;;;;;;;;10349515;28;20041;-63
2021/03/04 22:56:04;;;;;;;1.10;1.00;;;;;;;;;;10322302;28;21197;-62
2021/03/04 23:01:02;;;;;;;0.60;0.60;;;;;;;;;;10359246;28;20117;-63
2021/03/04 23:05:59;;;;;;;0.23;0.23;;;;;;;;;;10340396;28;20048;-63
2021/03/04 23:10:57;;;;;;;1.30;0.20;;;;;;;;;;10350847;28;20032;-63
2021/03/04 23:15:54;;;;;;;1.60;0.53;;;;;;;;;;10341131;28;20698;-62
2021/03/04 23:20:51;;;;;;;0.50;0.50;;;;;;;;;;10365175;28;20059;-62
2021/03/04 23:25:49;;;;;;;1.10;0.50;;;;;;;;;;10361989;28;20028;-63
2021/03/04 23:30:47;;;;;;;2.47;0.70;;;;;;;;;;10360781;28;20035;-62
2021/03/04 23:35:44;;;;;;;0.83;0.60;;;;;;;;;;10372693;28;20028;-62
2021/03/04 23:40:43;;;;;;;0.87;0.80;;;;;;;;;;10364342;28;20380;-63
2021/03/04 23:45:41;;;;;;;2.25;0.75;;;;;;;;;;10377818;28;20036;-62
2021/03/04 23:50:43;;;;;;;0.68;0.68;;;;;;;;;;10354372;28;20530;-62
2021/03/04 23:55:41;;;;;;;0.50;0.50;;;;;;;;;;10365624;28;20525;-63
